メインページ
METAR-TAF:

METAR-TAF

空港 :

成田国際空港

東京 / 成田国際空港, 日本

緯度: 35-46N, 経度: 140-23E, 海抜: 41m

現時点の気象観測

当レポートは27分前の08:30(UTC)に作成
北西の風 5kt
気温 7°C
湿度 61%
気圧 1020 hPa
視程10km以上
高度3000ftの雲はほとんどない
高度5000ftの千切れ雲あり

METAR: RJAA 130830Z 32005KT 9999 FEW030 BKN050 07/00 Q1020 NOSIG RMK 1CU030 7SC050 A3014

時間: 17:57 (08:57 UTC)

予報

当レポートは52分前の08:05(UTC)に作成
予報は13日の 08時(UTC)から 14日の 12時(UTC)まで有効
北/北西の風 5kt
視程10km以上
高度3000ftの雲はほとんどない
高度4500ftの千切れ雲あり
14日の 00時(UTC)から 14日の 06時(UTC)まで一時的に
北西の風 18kt、最大28ktの突風を伴う

TAF: RJAA 130805Z 1308/1412 33005KT 9999 FEW030 BKN045 TEMPO 1400/1406 31018G28KT

4,000以上の空港の気象観測と天気予報(METAR報とTAF報)

利用可能な観測所は地図上に黄色い丸と赤い丸で示す。

丸の上にカーソルを重ねると観測所名を参照できる。

次にクリックすると気象観測と天気予報を参照できる。

マップの切り替え:黒色「×」印の緑ボタンをクリックして拡大、「-」印の緑ボタンをクリックして縮小、緑色の三角印をクリックして隣りの地図に切り替え


METAR-TAF: